createdAt,value
2024-02-02T00:00:10.661Z,96618.56
2024-02-02T00:02:37.468Z,96614.06
2024-02-02T00:05:08.249Z,96606.94
2024-02-02T00:07:35.543Z,96623.75
2024-02-02T00:10:07.703Z,96614.59
2024-02-02T00:12:54.455Z,96623.75
2024-02-02T00:15:31.120Z,96621.25
2024-02-02T00:18:18.035Z,96625.06
2024-02-02T00:21:04.972Z,96620.06
2024-02-02T00:23:31.777Z,96627.22
2024-02-02T00:25:58.671Z,96625.91
2024-02-02T00:28:25.444Z,96634.22
2024-02-02T00:30:52.193Z,96635.47
2024-02-02T00:33:19.005Z,96633.13
2024-02-02T00:35:45.742Z,96635.47
2024-02-02T00:38:12.410Z,96638.50
2024-02-02T00:40:39.072Z,96635.63
2024-02-02T00:43:05.776Z,96634.53
2024-02-02T00:45:32.463Z,96645.09
2024-02-02T00:47:59.164Z,96653.66
2024-02-02T00:50:25.882Z,96649.84
2024-02-02T00:52:52.567Z,96655.94
2024-02-02T00:55:19.214Z,96657.75
2024-02-02T00:57:45.884Z,96662.03
2024-02-02T01:00:12.886Z,96656.91
2024-02-02T01:02:39.648Z,96659.59
2024-02-02T01:05:06.640Z,96652.66
2024-02-02T01:07:33.394Z,96655.34
2024-02-02T01:10:00.208Z,96662.97
2024-02-02T01:12:27.147Z,96663.22
2024-02-02T01:14:54.098Z,96670.03
2024-02-02T01:17:20.825Z,96668.81
2024-02-02T01:19:48.452Z,96672.56
2024-02-02T01:22:15.218Z,96675.75
2024-02-02T01:24:43.066Z,96673.13
2024-02-02T01:27:09.951Z,96674.88
2024-02-02T01:29:36.977Z,96674.59
2024-02-02T01:32:04.067Z,96673.88
2024-02-02T01:34:31.036Z,96680.03
2024-02-02T01:36:57.917Z,96678.38
2024-02-02T01:39:24.664Z,96677.44
2024-02-02T01:41:51.474Z,96679.41
2024-02-02T01:44:18.448Z,96686.34
2024-02-02T01:46:48.991Z,96683.66
2024-02-02T01:49:16.056Z,96689.19
2024-02-02T01:51:43.117Z,96688.50
2024-02-02T01:54:10.447Z,96689.31
2024-02-02T01:56:37.658Z,96696.75
2024-02-02T01:59:05.851Z,96698.59
2024-02-02T02:01:33.592Z,96694.16
2024-02-02T02:04:01.306Z,96698.91
2024-02-02T02:06:28.572Z,96693.28
2024-02-02T02:08:55.733Z,96696.09
2024-02-02T02:11:22.522Z,96692.03
2024-02-02T02:13:49.635Z,96695.09
2024-02-02T02:16:16.415Z,96690.50
2024-02-02T02:18:52.353Z,96700.91
2024-02-02T02:21:29.693Z,96689.69
2024-02-02T02:23:56.775Z,96693.31
2024-02-02T02:26:23.973Z,96686.78
2024-02-02T02:28:50.924Z,96701.41
2024-02-02T02:31:18.424Z,96689.72
2024-02-02T02:33:45.580Z,96694.31
2024-02-02T02:36:15.572Z,96692.22
2024-02-02T02:38:45.019Z,96690.88
2024-02-02T02:41:12.103Z,96699.25
2024-02-02T02:43:38.811Z,96697.44
2024-02-02T02:46:05.956Z,96696.78
2024-02-02T02:48:32.894Z,96697.56
2024-02-02T02:50:59.727Z,96702.00
2024-02-02T02:53:26.683Z,96699.69
2024-02-02T02:55:53.380Z,96700.53
2024-02-02T02:58:20.052Z,96699.13
2024-02-02T03:00:46.898Z,96689.88
2024-02-02T03:03:13.659Z,96687.56
2024-02-02T03:05:40.449Z,96698.63
2024-02-02T03:08:08.413Z,96690.19
2024-02-02T03:10:35.624Z,96691.38
2024-02-02T03:13:02.460Z,96688.69
2024-02-02T03:15:29.230Z,96682.16
2024-02-02T03:17:56.115Z,96686.25
2024-02-02T03:20:22.879Z,96677.06
2024-02-02T03:22:49.593Z,96675.09
2024-02-02T03:25:16.302Z,96675.75
2024-02-02T03:27:42.946Z,96676.25
2024-02-02T03:30:10.026Z,96681.50
2024-02-02T03:32:36.810Z,96677.72
2024-02-02T03:35:03.623Z,96678.03
2024-02-02T03:37:30.310Z,96682.00
2024-02-02T03:39:57.021Z,96675.75
2024-02-02T03:42:23.737Z,96675.53
2024-02-02T03:44:50.608Z,96668.53
2024-02-02T03:47:17.408Z,96666.91
2024-02-02T03:49:44.392Z,96666.91
2024-02-02T03:52:11.294Z,96668.19
2024-02-02T03:54:38.048Z,96668.84
2024-02-02T03:57:04.988Z,96673.47
2024-02-02T03:59:31.879Z,96675.09
2024-02-02T04:01:59.309Z,96673.94
2024-02-02T04:04:26.252Z,96678.63
2024-02-02T04:06:53.066Z,96674.31
2024-02-02T04:09:19.959Z,96680.47
2024-02-02T04:11:46.740Z,96680.34
2024-02-02T04:14:13.580Z,96676.34
2024-02-02T04:16:59.171Z,96673.88
2024-02-02T04:19:35.117Z,96676.38
2024-02-02T04:22:02.378Z,96684.47
2024-02-02T04:24:29.757Z,96700.25
2024-02-02T04:26:56.479Z,96694.47
2024-02-02T04:29:23.522Z,96699.75
2024-02-02T04:31:50.251Z,96699.66
2024-02-02T04:34:17.162Z,96700.22
2024-02-02T04:36:43.939Z,96698.38
2024-02-02T04:39:10.669Z,96701.03
2024-02-02T04:41:37.549Z,96702.34
2024-02-02T04:44:04.536Z,96709.53
2024-02-02T04:46:31.205Z,96703.19
2024-02-02T04:48:57.982Z,96708.47
2024-02-02T04:51:24.949Z,96707.88
2024-02-02T04:53:51.684Z,96709.41
2024-02-02T04:56:18.352Z,96710.22
2024-02-02T04:58:45.249Z,96717.13
2024-02-02T05:01:11.990Z,96719.41
2024-02-02T05:03:38.879Z,96722.59
2024-02-02T05:06:05.738Z,96714.34
2024-02-02T05:08:32.485Z,96713.34
2024-02-02T05:10:59.262Z,96711.53
2024-02-02T05:13:26.033Z,96713.56
2024-02-02T05:15:53.048Z,96714.19
2024-02-02T05:18:20.085Z,96721.13
2024-02-02T05:20:47.313Z,96724.91
2024-02-02T05:23:14.079Z,96717.53
2024-02-02T05:25:40.938Z,96716.84
2024-02-02T05:28:07.728Z,96718.66
2024-02-02T05:30:34.657Z,96716.69
2024-02-02T05:33:01.622Z,96716.84
2024-02-02T05:35:28.397Z,96721.16
2024-02-02T05:37:55.152Z,96714.47
2024-02-02T05:40:21.968Z,96718.03
2024-02-02T05:42:49.436Z,96721.47
2024-02-02T05:45:16.227Z,96723.72
2024-02-02T05:47:43.011Z,96724.75
2024-02-02T05:50:10.258Z,96719.84
2024-02-02T05:52:37.110Z,96725.97
2024-02-02T05:55:04.118Z,96736.41
2024-02-02T05:57:30.955Z,96731.13
2024-02-02T05:59:57.748Z,96726.19
2024-02-02T06:02:24.530Z,96732.03
2024-02-02T06:04:51.570Z,96730.13
2024-02-02T06:07:18.530Z,96725.88
2024-02-02T06:09:45.353Z,96731.81
2024-02-02T06:12:12.189Z,96740.56
2024-02-02T06:14:38.898Z,96735.97
2024-02-02T06:17:05.711Z,96737.31
2024-02-02T06:19:32.500Z,96739.00
2024-02-02T06:21:59.353Z,96734.25
2024-02-02T06:24:26.358Z,96743.44
2024-02-02T06:26:53.433Z,96736.38
2024-02-02T06:29:20.203Z,96729.88
2024-02-02T06:31:46.910Z,96729.25
2024-02-02T06:34:13.744Z,96733.78
2024-02-02T06:36:40.693Z,96733.28
2024-02-02T06:39:07.558Z,96736.13
2024-02-02T06:41:34.418Z,96732.69
2024-02-02T06:44:03.546Z,96717.50
2024-02-02T06:46:30.357Z,96736.66
2024-02-02T06:48:57.180Z,96748.75
2024-02-02T06:51:24.059Z,96733.84
2024-02-02T06:53:50.809Z,96739.38
2024-02-02T06:56:29.688Z,96743.03
2024-02-02T06:58:56.626Z,96743.16
2024-02-02T07:01:23.934Z,96747.34
2024-02-02T07:03:51.671Z,96737.56
2024-02-02T07:06:18.587Z,96747.41
2024-02-02T07:08:45.936Z,96749.66
2024-02-02T07:11:12.737Z,96745.97
2024-02-02T07:13:53.107Z,96752.69
2024-02-02T07:16:29.746Z,96754.50
2024-02-02T07:18:57.704Z,96770.63
2024-02-02T07:21:31.774Z,96776.53
2024-02-02T07:24:01.245Z,96789.47
2024-02-02T07:26:31.232Z,96806.75
2024-02-02T07:28:59.590Z,96796.59
2024-02-02T07:31:39.132Z,96801.84
2024-02-02T07:34:20.902Z,96819.91
2024-02-02T07:36:47.840Z,96828.38
2024-02-02T07:39:30.309Z,96824.34
2024-02-02T07:41:57.396Z,96821.06
2024-02-02T07:44:24.116Z,96825.25
2024-02-02T07:46:50.819Z,96821.44
2024-02-02T07:49:17.626Z,96824.78
2024-02-02T07:51:44.445Z,96819.47
2024-02-02T07:54:11.801Z,96815.22
2024-02-02T07:56:38.619Z,96815.13
2024-02-02T07:59:05.325Z,96804.13
2024-02-02T08:01:32.110Z,96803.47
2024-02-02T08:03:59.022Z,96806.59
2024-02-02T08:06:25.986Z,96808.81
2024-02-02T08:08:52.877Z,96810.06
2024-02-02T08:11:19.660Z,96809.38
2024-02-02T08:13:46.396Z,96807.59
2024-02-02T08:16:13.219Z,96806.34
2024-02-02T08:18:40.323Z,96813.34
2024-02-02T08:21:07.286Z,96809.97
2024-02-02T08:23:33.979Z,96813.81
2024-02-02T08:26:00.744Z,96814.34
2024-02-02T08:28:30.028Z,96815.97
2024-02-02T08:30:58.517Z,96809.00
2024-02-02T08:33:25.397Z,96804.69
2024-02-02T08:35:52.430Z,96819.66
2024-02-02T08:38:20.339Z,96811.41
2024-02-02T08:40:47.330Z,96810.59
2024-02-02T08:43:17.932Z,96788.78
2024-02-02T08:45:54.073Z,96806.25
2024-02-02T08:48:39.192Z,96822.97
2024-02-02T08:51:14.921Z,96827.56
2024-02-02T08:53:41.976Z,96838.63
2024-02-02T08:56:13.387Z,96841.28
2024-02-02T08:58:40.109Z,96838.19
2024-02-02T09:01:29.522Z,96835.94
2024-02-02T09:03:56.511Z,96833.94
2024-02-02T09:06:27.139Z,96817.28
2024-02-02T09:08:54.033Z,96818.09
2024-02-02T09:11:23.176Z,96827.19
2024-02-02T09:13:59.256Z,96812.25
2024-02-02T09:16:38.864Z,96818.31
2024-02-02T09:19:25.278Z,96824.25
2024-02-02T09:21:53.229Z,96829.34
2024-02-02T09:24:29.178Z,96824.78
2024-02-02T09:26:58.586Z,96827.41
2024-02-02T09:29:25.419Z,96837.09
2024-02-02T09:31:52.245Z,96853.88
2024-02-02T09:34:23.899Z,96846.41
2024-02-02T09:36:50.907Z,96838.56
2024-02-02T09:39:44.847Z,96841.25
2024-02-02T09:42:26.644Z,96812.22
2024-02-02T09:45:00.680Z,96802.22
2024-02-02T09:47:52.834Z,96800.16
2024-02-02T09:50:34.953Z,96810.38
2024-02-02T09:53:28.754Z,96818.91
2024-02-02T09:56:04.657Z,96810.78
2024-02-02T09:58:47.274Z,96821.59
2024-02-02T10:01:31.499Z,96831.09
2024-02-02T10:04:29.450Z,96832.91
2024-02-02T10:07:15.481Z,96822.19
2024-02-02T10:10:12.543Z,96809.84
2024-02-02T10:12:51.378Z,96820.53
2024-02-02T10:15:33.218Z,96836.53
2024-02-02T10:18:31.093Z,96843.94
2024-02-02T10:21:12.089Z,96823.69
2024-02-02T10:24:17.935Z,96834.69
2024-02-02T10:26:57.866Z,96833.38
2024-02-02T10:29:46.653Z,96825.19
2024-02-02T10:32:59.115Z,96833.16
2024-02-02T10:35:41.937Z,96827.41
2024-02-02T10:38:47.662Z,96835.59
2024-02-02T10:41:52.368Z,96837.34
2024-02-02T10:44:30.962Z,96844.66
2024-02-02T10:47:18.179Z,96849.75
2024-02-02T10:50:01.168Z,96848.38
2024-02-02T10:52:33.960Z,96858.06
2024-02-02T10:55:06.792Z,96851.28
2024-02-02T10:57:54.728Z,96847.81
2024-02-02T11:00:24.124Z,96836.84
2024-02-02T11:03:07.092Z,96834.66
2024-02-02T11:05:42.904Z,96826.09
2024-02-02T11:08:16.843Z,96822.13
2024-02-02T11:11:09.734Z,96829.88
2024-02-02T11:13:51.594Z,96825.69
2024-02-02T11:16:40.151Z,96824.34
2024-02-02T11:19:43.182Z,96827.75
2024-02-02T11:22:16.639Z,96823.88
2024-02-02T11:24:57.618Z,96811.06
2024-02-02T11:27:40.227Z,96807.31
2024-02-02T11:30:08.203Z,96804.53
2024-02-02T11:32:47.167Z,96812.59
2024-02-02T11:35:28.886Z,96809.31
2024-02-02T11:38:11.688Z,96805.72
2024-02-02T11:40:42.105Z,96794.03
2024-02-02T11:43:11.449Z,96787.41
2024-02-02T11:45:41.184Z,96786.91
2024-02-02T11:48:19.061Z,96787.84
2024-02-02T11:50:50.196Z,96779.31
2024-02-02T11:53:41.385Z,96783.63
2024-02-02T11:56:28.202Z,96777.16
2024-02-02T11:59:04.634Z,96777.66
2024-02-02T12:02:09.013Z,96775.69
2024-02-02T12:04:44.773Z,96773.41
2024-02-02T12:07:37.361Z,96777.28
2024-02-02T12:10:06.544Z,96773.38
2024-02-02T12:12:47.156Z,96774.22
2024-02-02T12:15:14.017Z,96774.69
2024-02-02T12:17:41.055Z,96765.69
2024-02-02T12:20:12.067Z,96757.66
2024-02-02T12:22:39.149Z,96762.34
2024-02-02T12:25:09.656Z,96761.66
2024-02-02T12:27:39.585Z,96757.59
2024-02-02T12:30:08.147Z,96752.50
2024-02-02T12:32:35.821Z,96750.41
2024-02-02T12:35:02.799Z,96748.03
2024-02-02T12:37:48.315Z,96742.22
2024-02-02T12:40:16.756Z,96744.63
2024-02-02T12:42:43.812Z,96737.00
2024-02-02T12:45:14.228Z,96744.97
2024-02-02T12:47:41.180Z,96731.53
2024-02-02T12:50:09.580Z,96728.66
2024-02-02T12:52:36.487Z,96733.47
2024-02-02T12:55:03.392Z,96730.06
2024-02-02T12:57:30.191Z,96725.38
2024-02-02T12:59:58.346Z,96729.94
2024-02-02T13:02:25.071Z,96729.28
2024-02-02T13:04:53.678Z,96734.16
2024-02-02T13:07:20.683Z,96733.47
2024-02-02T13:09:51.349Z,96731.88
2024-02-02T13:12:28.756Z,96725.78
2024-02-02T13:15:10.862Z,96728.38
2024-02-02T13:17:38.368Z,96721.47
2024-02-02T13:20:15.081Z,96721.94
2024-02-02T13:22:45.831Z,96718.47
2024-02-02T13:25:13.595Z,96723.31
2024-02-02T13:27:42.509Z,96716.56
2024-02-02T13:30:09.599Z,96712.13
2024-02-02T13:32:37.731Z,96714.38
2024-02-02T13:35:05.451Z,96715.69
2024-02-02T13:37:32.927Z,96710.19
2024-02-02T13:40:00.680Z,96706.09
2024-02-02T13:42:27.596Z,96714.03
2024-02-02T13:44:54.363Z,96706.56
2024-02-02T13:47:21.717Z,96705.91
2024-02-02T13:49:49.297Z,96709.53
2024-02-02T13:52:16.668Z,96711.72
2024-02-02T13:54:43.549Z,96716.41
2024-02-02T13:57:11.716Z,96713.56
2024-02-02T13:59:38.915Z,96716.66
2024-02-02T14:02:06.380Z,96713.81
2024-02-02T14:04:33.230Z,96703.66
2024-02-02T14:07:00.915Z,96708.47
2024-02-02T14:09:28.655Z,96708.03
2024-02-02T14:12:02.243Z,96706.63
2024-02-02T14:14:29.637Z,96707.44
2024-02-02T14:17:06.263Z,96696.56
2024-02-02T14:19:33.883Z,96712.25
2024-02-02T14:22:05.825Z,96702.50
2024-02-02T14:24:32.988Z,96695.44
2024-02-02T14:27:02.645Z,96698.03
2024-02-02T14:29:40.356Z,96696.88
2024-02-02T14:32:07.743Z,96694.78
2024-02-02T14:34:34.590Z,96698.47
2024-02-02T14:37:02.162Z,96701.50
2024-02-02T14:39:28.917Z,96700.28
2024-02-02T14:41:57.158Z,96699.13
2024-02-02T14:44:26.071Z,96708.22
2024-02-02T14:46:52.855Z,96703.72
2024-02-02T14:49:20.305Z,96701.22
2024-02-02T14:51:47.089Z,96698.63
2024-02-02T14:54:13.809Z,96701.88
2024-02-02T14:56:40.681Z,96702.69
2024-02-02T14:59:07.708Z,96705.66
2024-02-02T15:01:37.885Z,96707.97
2024-02-02T15:04:05.531Z,96703.22
2024-02-02T15:06:34.781Z,96704.19
2024-02-02T15:09:02.597Z,96706.88
2024-02-02T15:11:29.286Z,96704.81
2024-02-02T15:13:56.043Z,96710.66
2024-02-02T15:16:22.824Z,96710.53
2024-02-02T15:18:49.566Z,96712.69
2024-02-02T15:21:16.486Z,96716.31
2024-02-02T15:23:43.274Z,96724.00
2024-02-02T15:26:10.315Z,96718.53
2024-02-02T15:28:37.064Z,96723.31
2024-02-02T15:31:03.922Z,96725.94
2024-02-02T15:33:30.751Z,96724.09
2024-02-02T15:35:57.712Z,96724.13
2024-02-02T15:38:24.447Z,96729.22
2024-02-02T15:40:51.172Z,96734.19
2024-02-02T15:43:17.894Z,96726.97
2024-02-02T15:45:44.600Z,96719.66
2024-02-02T15:48:11.548Z,96719.69
2024-02-02T15:50:38.283Z,96724.81
2024-02-02T15:53:05.146Z,96716.28
2024-02-02T15:55:31.803Z,96730.00
2024-02-02T15:57:58.582Z,96724.38
2024-02-02T16:00:25.343Z,96725.00
2024-02-02T16:02:52.205Z,96719.31
2024-02-02T16:05:19.678Z,96726.03
2024-02-02T16:07:46.621Z,96730.50
2024-02-02T16:10:14.881Z,96732.66
2024-02-02T16:12:41.752Z,96728.78
2024-02-02T16:15:10.234Z,96727.69
2024-02-02T16:17:38.049Z,96731.13
2024-02-02T16:20:13.268Z,96730.97
2024-02-02T16:22:41.497Z,96731.41
2024-02-02T16:25:14.857Z,96730.81
2024-02-02T16:27:41.894Z,96729.19
2024-02-02T16:30:09.446Z,96732.38
2024-02-02T16:32:36.222Z,96726.84
2024-02-02T16:35:03.142Z,96725.91
2024-02-02T16:37:30.052Z,96730.03
2024-02-02T16:39:56.739Z,96727.44
2024-02-02T16:42:23.609Z,96725.22
2024-02-02T16:44:50.366Z,96733.19
2024-02-02T16:47:17.118Z,96726.06
2024-02-02T16:49:43.929Z,96728.97
2024-02-02T16:52:10.761Z,96731.03
2024-02-02T16:54:37.589Z,96734.59
2024-02-02T16:57:04.582Z,96739.81
2024-02-02T16:59:31.367Z,96737.53
2024-02-02T17:01:58.378Z,96733.13
2024-02-02T17:04:25.306Z,96726.34
2024-02-02T17:06:52.244Z,96731.78
2024-02-02T17:09:19.081Z,96722.69
2024-02-02T17:11:45.865Z,96716.53
2024-02-02T17:14:12.886Z,96713.53
2024-02-02T17:16:39.698Z,96716.19
2024-02-02T17:19:06.632Z,96717.47
2024-02-02T17:21:33.612Z,96708.34
2024-02-02T17:24:00.456Z,96715.78
2024-02-02T17:26:27.408Z,96719.97
2024-02-02T17:29:00.189Z,96721.06
2024-02-02T17:31:30.646Z,96718.91
2024-02-02T17:33:57.537Z,96716.63
2024-02-02T17:36:24.476Z,96721.91
2024-02-02T17:38:51.227Z,96718.75
2024-02-02T17:41:18.276Z,96715.56
2024-02-02T17:43:46.423Z,96715.94
2024-02-02T17:46:15.092Z,96715.44
2024-02-02T17:48:41.948Z,96714.84
2024-02-02T17:51:09.806Z,96717.81
2024-02-02T17:53:38.164Z,96715.97
2024-02-02T17:56:06.372Z,96716.66
2024-02-02T17:58:33.565Z,96715.19
2024-02-02T18:01:00.345Z,96712.03
2024-02-02T18:03:28.913Z,96714.16
2024-02-02T18:05:55.887Z,96714.00
2024-02-02T18:08:23.157Z,96719.47
2024-02-02T18:10:50.287Z,96717.78
2024-02-02T18:13:16.948Z,96716.84
2024-02-02T18:15:43.855Z,96723.09
2024-02-02T18:18:10.689Z,96720.78
2024-02-02T18:20:37.480Z,96718.16
2024-02-02T18:23:04.371Z,96720.03
2024-02-02T18:25:33.956Z,96717.97
2024-02-02T18:28:02.688Z,96718.50
2024-02-02T18:30:29.440Z,96724.53
2024-02-02T18:32:58.562Z,96723.06
2024-02-02T18:35:25.324Z,96721.91
2024-02-02T18:37:52.085Z,96722.91
2024-02-02T18:40:18.881Z,96726.00
2024-02-02T18:42:45.652Z,96722.38
2024-02-02T18:45:14.437Z,96718.78
2024-02-02T18:47:42.129Z,96710.78
2024-02-02T18:50:09.193Z,96715.31
2024-02-02T18:52:35.998Z,96720.84
2024-02-02T18:55:02.717Z,96720.81
2024-02-02T18:57:29.760Z,96726.38
2024-02-02T18:59:56.534Z,96723.25
2024-02-02T19:02:23.237Z,96723.81
2024-02-02T19:04:50.211Z,96716.34
2024-02-02T19:07:17.176Z,96711.03
2024-02-02T19:09:44.124Z,96704.31
2024-02-02T19:12:10.997Z,96700.06
2024-02-02T19:14:38.180Z,96702.00
2024-02-02T19:17:05.194Z,96697.38
2024-02-02T19:19:32.220Z,96698.41
2024-02-02T19:21:59.127Z,96692.03
2024-02-02T19:24:25.935Z,96692.78
2024-02-02T19:26:54.686Z,96688.19
2024-02-02T19:29:22.849Z,96687.06
2024-02-02T19:31:49.577Z,96691.16
2024-02-02T19:34:16.604Z,96689.84
2024-02-02T19:36:43.503Z,96697.63
2024-02-02T19:39:10.567Z,96694.88
2024-02-02T19:41:37.494Z,96686.41
2024-02-02T19:44:04.529Z,96686.78
2024-02-02T19:46:33.471Z,96678.88
2024-02-02T19:49:02.893Z,96689.66
2024-02-02T19:51:30.916Z,96684.00
2024-02-02T19:53:57.956Z,96691.47
2024-02-02T19:56:24.755Z,96690.72
2024-02-02T19:58:51.722Z,96695.91
2024-02-02T20:01:20.881Z,96693.31
2024-02-02T20:03:50.981Z,96693.00
2024-02-02T20:06:19.823Z,96693.66
2024-02-02T20:08:48.606Z,96701.06
2024-02-02T20:11:17.893Z,96713.22
2024-02-02T20:13:45.221Z,96711.28
2024-02-02T20:16:20.327Z,96704.44
2024-02-02T20:18:47.713Z,96706.09
2024-02-02T20:21:20.347Z,96711.06
2024-02-02T20:23:47.282Z,96705.84
2024-02-02T20:26:14.696Z,96709.09
2024-02-02T20:28:41.552Z,96709.31
2024-02-02T20:31:08.312Z,96718.06
2024-02-02T20:33:35.081Z,96712.03
2024-02-02T20:36:02.015Z,96706.25
2024-02-02T20:38:29.130Z,96704.22
2024-02-02T20:40:56.143Z,96708.34
2024-02-02T20:43:22.949Z,96708.88
2024-02-02T20:45:49.787Z,96701.72
2024-02-02T20:48:16.679Z,96702.84
2024-02-02T20:50:43.540Z,96697.28
2024-02-02T20:53:10.280Z,96696.13
2024-02-02T20:55:37.052Z,96698.63
2024-02-02T20:58:04.759Z,96707.41
2024-02-02T21:00:31.638Z,96704.50
2024-02-02T21:02:58.789Z,96707.31
2024-02-02T21:05:25.927Z,96696.75
2024-02-02T21:07:53.636Z,96701.09
2024-02-02T21:10:20.814Z,96690.22
2024-02-02T21:12:47.733Z,96693.84
2024-02-02T21:15:15.097Z,96690.88
2024-02-02T21:17:42.262Z,96687.56
2024-02-02T21:20:09.447Z,96696.13
2024-02-02T21:22:36.132Z,96687.91
2024-02-02T21:25:02.875Z,96685.63
2024-02-02T21:27:29.775Z,96690.72
2024-02-02T21:29:56.439Z,96689.41
2024-02-02T21:32:23.149Z,96691.47
2024-02-02T21:34:50.020Z,96700.06
2024-02-02T21:37:16.752Z,96705.97
2024-02-02T21:39:43.472Z,96698.72
2024-02-02T21:42:10.222Z,96694.13
2024-02-02T21:44:37.218Z,96704.31
2024-02-02T21:47:04.476Z,96708.53
2024-02-02T21:49:31.319Z,96708.75
2024-02-02T21:51:58.088Z,96704.63
2024-02-02T21:54:24.827Z,96701.00
2024-02-02T21:56:51.633Z,96705.88
2024-02-02T21:59:18.290Z,96705.69
2024-02-02T22:01:45.019Z,96696.25
2024-02-02T22:04:11.845Z,96702.66
2024-02-02T22:06:38.628Z,96699.47
2024-02-02T22:09:05.384Z,96700.44
2024-02-02T22:11:32.125Z,96695.13
2024-02-02T22:13:58.806Z,96696.69
2024-02-02T22:16:25.512Z,96692.91
2024-02-02T22:18:52.355Z,96695.03
2024-02-02T22:21:22.970Z,96692.81
2024-02-02T22:23:49.627Z,96694.06
2024-02-02T22:26:22.875Z,96692.81
2024-02-02T22:28:49.650Z,96695.13
2024-02-02T22:31:23.110Z,96694.75
2024-02-02T22:33:51.007Z,96692.44
2024-02-02T22:36:22.562Z,96691.53
2024-02-02T22:38:49.236Z,96692.50
2024-02-02T22:41:33.660Z,96698.53
2024-02-02T22:44:02.386Z,96707.91
2024-02-02T22:46:33.138Z,96701.72
2024-02-02T22:49:02.122Z,96700.19
2024-02-02T22:51:29.335Z,96699.91
2024-02-02T22:53:56.067Z,96700.56
2024-02-02T22:56:22.870Z,96705.97
2024-02-02T22:58:49.632Z,96708.13
2024-02-02T23:01:16.620Z,96701.38
2024-02-02T23:03:43.626Z,96702.38
2024-02-02T23:06:10.458Z,96704.47
2024-02-02T23:08:37.188Z,96706.38
2024-02-02T23:11:04.120Z,96703.16
2024-02-02T23:13:30.791Z,96701.63
2024-02-02T23:15:57.551Z,96696.38
2024-02-02T23:18:24.429Z,96696.50
2024-02-02T23:20:51.243Z,96707.81
2024-02-02T23:23:17.929Z,96704.38
2024-02-02T23:25:44.573Z,96699.09
2024-02-02T23:28:11.280Z,96698.56
2024-02-02T23:30:38.034Z,96704.44
2024-02-02T23:33:04.880Z,96695.38
2024-02-02T23:35:31.597Z,96694.78
2024-02-02T23:37:58.387Z,96692.50
2024-02-02T23:40:25.050Z,96704.63
2024-02-02T23:42:51.850Z,96688.72
2024-02-02T23:45:18.617Z,96700.06
2024-02-02T23:47:45.426Z,96690.88
2024-02-02T23:50:12.552Z,96687.28
2024-02-02T23:52:39.338Z,96692.34
2024-02-02T23:55:06.477Z,96688.88
2024-02-02T23:57:33.797Z,96686.75
